Time;durP1;ratioP1;P1;durP2;ratioP2;P2;SDS_P1;SDS_P2;PMS_P1;PMS_P2;Temp;Humidity;BMP_temperature;BMP_pressure;BME280_temperature;BME280_humidity;BME280_pressure;Samples;Min_cycle;Max_cycle;Signal;HPM_P1;HPM_P2
2021/12/11 17:26:10;;;;;;;51.75;20.40;;;3.00;99.90;;;;;;5084603;27;20399;-66
2021/12/11 17:28:45;;;;;;;41.67;20.13;;;3.00;99.90;;;;;;5067785;28;20083;-66
2021/12/11 17:31:12;;;;;;;38.17;20.15;;;2.90;99.90;;;;;;5060968;28;20037;-66
2021/12/11 17:33:39;;;;;;;58.95;21.15;;;3.00;99.90;;;;;;5051243;28;20160;-65
2021/12/11 17:36:06;;;;;;;48.97;21.27;;;3.00;99.90;;;;;;5058224;28;20037;-66
2021/12/11 17:38:33;;;;;;;44.95;21.35;;;3.00;99.90;;;;;;5059161;28;21872;-66
2021/12/11 17:40:59;;;;;;;47.53;21.20;;;3.00;99.90;;;;;;5062011;28;20418;-66
2021/12/11 17:43:25;;;;;;;38.65;19.25;;;3.00;99.90;;;;;;5063868;28;20111;-65
2021/12/11 17:45:50;;;;;;;32.05;18.50;;;3.00;99.90;;;;;;5064364;28;20451;-66
2021/12/11 17:48:16;;;;;;;40.75;20.75;;;3.10;99.90;;;;;;5063238;28;20039;-66
2021/12/11 17:50:51;;;;;;;45.40;20.67;;;3.10;99.90;;;;;;5063208;28;20047;-66
2021/12/11 17:53:17;;;;;;;100.75;28.13;;;3.10;99.90;;;;;;5070276;28;20048;-66
2021/12/11 17:55:47;;;;;;;50.65;23.20;;;3.10;99.90;;;;;;5063214;28;20051;-65
2021/12/11 17:58:29;;;;;;;38.40;21.10;;;3.10;99.90;;;;;;5064233;28;20036;-66
2021/12/11 18:01:04;;;;;;;45.72;19.05;;;3.10;99.90;;;;;;5057272;28;20048;-66
2021/12/11 18:03:30;;;;;;;36.50;18.55;;;3.20;99.90;;;;;;5039357;28;20045;-66
2021/12/11 18:05:58;;;;;;;46.47;19.25;;;3.20;99.90;;;;;;5055396;28;20079;-66
2021/12/11 18:08:27;;;;;;;40.50;18.80;;;3.20;99.90;;;;;;5056324;28;20602;-66
2021/12/11 18:11:00;;;;;;;67.15;21.27;;;3.20;99.90;;;;;;5055059;28;20511;-66
2021/12/11 18:13:42;;;;;;;40.88;19.00;;;3.20;99.90;;;;;;5053334;28;20116;-66
2021/12/11 18:16:16;;;;;;;32.60;18.05;;;3.30;99.90;;;;;;5057539;28;20041;-67
2021/12/11 18:18:51;;;;;;;40.22;18.98;;;3.30;99.90;;;;;;5057547;28;20064;-66
2021/12/11 18:21:28;;;;;;;;;;;3.30;99.90;;;;;;5057603;28;20132;-65
2021/12/11 18:23:54;;;;;;;51.10;19.13;;;3.30;99.90;;;;;;5057994;28;19928;-66
2021/12/11 18:26:24;;;;;;;59.47;21.52;;;3.30;99.90;;;;;;5058931;28;20041;-65
2021/12/11 18:28:51;;;;;;;73.95;21.10;;;3.30;99.90;;;;;;5053276;28;20476;-66
2021/12/11 18:31:22;;;;;;;51.17;19.38;;;3.30;99.90;;;;;;5056249;28;20049;-65
2021/12/11 18:33:49;;;;;;;33.65;19.55;;;3.30;99.90;;;;;;5058455;28;20337;-66
2021/12/11 18:36:19;;;;;;;108.85;25.10;;;3.30;99.90;;;;;;5044550;28;20083;-66
2021/12/11 18:38:46;;;;;;;36.55;18.77;;;3.30;99.90;;;;;;5041960;28;20094;-65
2021/12/11 18:41:30;;;;;;;56.85;19.65;;;3.40;99.90;;;;;;5041364;28;20045;-66
2021/12/11 18:43:58;;;;;;;61.78;21.20;;;3.30;99.90;;;;;;5044722;28;20923;-66
2021/12/11 18:46:28;;;;;;;43.53;19.98;;;3.40;99.90;;;;;;5044396;28;20463;-66
2021/12/11 18:48:54;;;;;;;31.27;18.75;;;3.40;99.90;;;;;;5037658;28;20136;-65
2021/12/11 18:51:27;;;;;;;34.70;19.25;;;3.40;99.90;;;;;;5040446;28;20038;-66
2021/12/11 18:53:57;;;;;;;36.05;18.65;;;3.40;99.90;;;;;;5042213;28;20048;-66
2021/12/11 18:56:24;;;;;;;32.83;18.60;;;3.40;99.90;;;;;;5046366;28;20052;-67
2021/12/11 18:58:53;;;;;;;28.35;16.85;;;3.40;99.90;;;;;;5046218;28;20527;-66
2021/12/11 19:01:28;;;;;;;34.70;18.38;;;3.40;99.90;;;;;;5046149;28;20044;-66
2021/12/11 19:04:00;;;;;;;31.80;18.23;;;3.40;99.90;;;;;;5042912;28;20048;-66
2021/12/11 19:06:28;;;;;;;27.95;17.58;;;3.40;99.90;;;;;;5045078;28;20033;-66
2021/12/11 19:08:56;;;;;;;30.40;17.92;;;3.40;99.90;;;;;;5042214;28;20492;-66
2021/12/11 19:11:30;;;;;;;41.00;18.63;;;3.40;99.90;;;;;;5041482;28;20045;-66
2021/12/11 19:13:57;;;;;;;27.92;16.23;;;3.40;99.90;;;;;;5043458;28;20560;-66
2021/12/11 19:16:24;;;;;;;30.33;17.58;;;3.40;99.90;;;;;;5043248;28;20451;-66
2021/12/11 19:18:50;;;;;;;35.83;17.27;;;3.40;99.90;;;;;;5038158;28;20057;-66
2021/12/11 19:21:27;;;;;;;28.30;17.75;;;3.40;99.90;;;;;;5035278;28;20048;-65
2021/12/11 19:23:55;;;;;;;30.75;16.85;;;3.50;99.90;;;;;;5043229;28;20213;-65
2021/12/11 19:26:22;;;;;;;29.00;16.77;;;3.50;99.90;;;;;;5040908;28;20048;-65
2021/12/11 19:28:51;;;;;;;29.02;17.38;;;3.50;99.90;;;;;;5043048;28;20522;-66
2021/12/11 19:31:32;;;;;;;37.83;20.27;;;3.50;99.90;;;;;;5023453;28;20056;-66
2021/12/11 19:34:00;;;;;;;28.98;17.73;;;3.50;99.90;;;;;;5039748;28;20223;-66
2021/12/11 19:36:29;;;;;;;31.60;17.13;;;3.60;99.90;;;;;;5044621;28;20033;-66
2021/12/11 19:39:00;;;;;;;29.83;18.95;;;3.60;99.90;;;;;;5045062;28;20079;-66
2021/12/11 19:41:26;;;;;;;30.35;18.30;;;3.60;99.90;;;;;;5039181;28;20219;-66
2021/12/11 19:43:57;;;;;;;31.92;19.02;;;3.60;99.90;;;;;;5038441;28;20072;-65
2021/12/11 19:46:23;;;;;;;34.35;18.95;;;3.60;99.90;;;;;;5039304;28;20041;-65
2021/12/11 19:48:50;;;;;;;33.78;18.40;;;3.60;99.90;;;;;;5028993;28;20053;-67
2021/12/11 19:51:19;;;;;;;36.17;19.40;;;3.60;99.90;;;;;;5039449;28;20049;-65
2021/12/11 19:53:47;;;;;;;31.88;17.73;;;3.60;99.90;;;;;;5029003;28;20045;-65
2021/12/11 19:56:15;;;;;;;28.10;17.30;;;3.70;99.90;;;;;;5037137;28;20056;-65
2021/12/11 19:58:42;;;;;;;29.73;16.58;;;3.70;99.90;;;;;;5035662;28;20136;-65
2021/12/11 20:01:20;;;;;;;29.17;17.77;;;3.70;99.90;;;;;;5036554;28;20055;-66
2021/12/11 20:03:49;;;;;;;28.73;17.77;;;3.60;99.90;;;;;;5038679;28;20146;-65
2021/12/11 20:06:18;;;;;;;29.92;17.20;;;3.70;99.90;;;;;;5035264;28;20037;-65
2021/12/11 20:08:52;;;;;;;32.85;17.17;;;3.70;99.90;;;;;;5032229;28;20051;-65
2021/12/11 20:11:26;;;;;;;29.27;17.75;;;3.70;99.90;;;;;;5032851;28;20179;-66
2021/12/11 20:13:52;;;;;;;29.02;17.23;;;3.70;99.90;;;;;;5030020;28;20140;-65
2021/12/11 20:16:26;;;;;;;31.02;18.48;;;3.70;99.90;;;;;;5038992;28;20305;-65
2021/12/11 20:19:07;;;;;;;37.15;19.77;;;3.70;99.90;;;;;;5029138;28;20138;-65
2021/12/11 20:21:38;;;;;;;36.60;18.45;;;3.80;99.90;;;;;;5029629;28;20076;-65
2021/12/11 20:24:06;;;;;;;30.73;17.10;;;3.70;99.90;;;;;;5026930;28;20058;-65
2021/12/11 20:26:33;;;;;;;30.17;18.33;;;3.80;99.90;;;;;;5031962;28;21008;-66
2021/12/11 20:29:05;;;;;;;36.92;18.92;;;3.80;99.90;;;;;;5033290;28;20101;-66
2021/12/11 20:31:37;;;;;;;39.45;20.70;;;3.80;99.90;;;;;;5032098;28;20075;-66
2021/12/11 20:34:04;;;;;;;35.00;18.77;;;3.80;99.90;;;;;;5030239;28;20064;-67
2021/12/11 20:36:30;;;;;;;36.88;19.83;;;3.80;99.90;;;;;;5032074;28;20040;-66
2021/12/11 20:38:58;;;;;;;39.08;20.73;;;3.80;99.90;;;;;;5033836;28;20049;-67
2021/12/11 20:41:34;;;;;;;42.13;20.85;;;3.80;99.90;;;;;;5023855;28;20179;-67
2021/12/11 20:44:04;;;;;;;41.35;20.30;;;3.90;99.90;;;;;;5031798;28;20103;-66
2021/12/11 20:46:30;;;;;;;35.60;19.08;;;3.90;99.90;;;;;;5033574;28;20072;-67
2021/12/11 20:48:58;;;;;;;31.35;18.08;;;3.90;99.90;;;;;;5034161;28;20171;-66
2021/12/11 20:51:28;;;;;;;34.28;19.20;;;3.90;99.90;;;;;;5032498;28;20045;-67
2021/12/11 20:53:57;;;;;;;38.35;20.15;;;3.90;99.90;;;;;;5032134;28;20150;-67
2021/12/11 20:56:26;;;;;;;36.45;18.15;;;3.90;99.90;;;;;;5035916;28;20570;-67
2021/12/11 20:58:53;;;;;;;40.40;19.33;;;3.90;99.90;;;;;;5031933;28;20103;-67
2021/12/11 21:01:25;;;;;;;35.63;17.90;;;3.90;99.90;;;;;;5028154;28;20159;-67
2021/12/11 21:03:55;;;;;;;35.38;19.95;;;4.00;99.90;;;;;;5030941;28;20845;-65
2021/12/11 21:06:27;;;;;;;29.33;17.30;;;4.00;99.90;;;;;;5026948;28;20072;-65
2021/12/11 21:08:57;;;;;;;32.55;18.95;;;4.00;99.90;;;;;;5034100;28;20061;-66
2021/12/11 21:11:28;;;;;;;39.03;19.92;;;4.00;99.90;;;;;;5037441;28;20052;-66
2021/12/11 21:13:57;;;;;;;31.45;19.45;;;4.00;99.90;;;;;;5035101;28;20110;-66
2021/12/11 21:16:30;;;;;;;34.75;18.58;;;4.00;99.90;;;;;;5032104;28;20045;-66
2021/12/11 21:19:08;;;;;;;38.40;21.25;;;4.00;99.90;;;;;;5027748;28;20710;-66
2021/12/11 21:21:41;;;;;;;39.42;20.70;;;4.00;99.90;;;;;;5040723;28;20045;-65
2021/12/11 21:24:15;;;;;;;38.28;20.08;;;4.00;99.90;;;;;;5030725;28;20089;-65
2021/12/11 21:26:41;;;;;;;39.03;20.83;;;4.10;99.90;;;;;;5027917;28;20073;-66
2021/12/11 21:29:10;;;;;;;32.28;18.30;;;4.10;99.90;;;;;;5023717;28;20194;-65
2021/12/11 21:31:46;;;;;;;34.55;19.67;;;4.10;99.90;;;;;;5031347;28;20053;-65
2021/12/11 21:34:12;;;;;;;36.10;20.30;;;4.10;99.90;;;;;;5028547;28;20055;-66
2021/12/11 21:36:40;;;;;;;37.97;19.60;;;4.10;99.90;;;;;;5027572;28;20408;-65
2021/12/11 21:39:23;;;;;;;37.38;19.77;;;4.10;99.90;;;;;;5041488;28;20037;-66
2021/12/11 21:42:23;;;;;;;35.80;18.95;;;4.10;99.90;;;;;;5031072;28;20053;-66
2021/12/11 21:44:50;;;;;;;36.53;18.80;;;4.20;99.90;;;;;;5031003;28;20469;-66
2021/12/11 21:47:16;;;;;;;32.92;18.20;;;4.20;99.90;;;;;;5034384;28;20055;-66
2021/12/11 21:49:49;;;;;;;35.63;18.17;;;4.20;99.90;;;;;;5041000;28;20041;-65
2021/12/11 21:52:21;;;;;;;38.55;19.30;;;4.20;99.90;;;;;;5025346;28;20050;-66
2021/12/11 21:54:49;;;;;;;40.47;19.50;;;4.20;99.90;;;;;;5031853;28;20091;-66
2021/12/11 21:57:18;;;;;;;34.70;19.65;;;4.20;99.90;;;;;;5029917;28;20190;-67
2021/12/11 21:59:58;;;;;;;33.05;19.15;;;4.20;99.90;;;;;;5029539;28;20472;-67
2021/12/11 22:02:31;;;;;;;34.25;19.73;;;4.20;99.90;;;;;;5026564;28;20063;-67
2021/12/11 22:05:00;;;;;;;34.28;19.05;;;4.20;99.90;;;;;;5034703;28;20053;-66
2021/12/11 22:07:31;;;;;;;42.58;20.88;;;4.20;99.90;;;;;;5027472;28;20168;-66
2021/12/11 22:10:00;;;;;;;37.28;18.55;;;4.20;99.90;;;;;;5038409;28;20160;-66
2021/12/11 22:12:32;;;;;;;39.42;19.45;;;4.20;99.90;;;;;;5037370;28;20064;-66
2021/12/11 22:15:00;;;;;;;34.72;20.02;;;4.20;99.90;;;;;;5039982;28;20147;-65
2021/12/11 22:17:30;;;;;;;38.03;20.52;;;4.30;99.90;;;;;;5038324;28;20084;-65
2021/12/11 22:20:00;;;;;;;37.28;20.45;;;4.20;99.90;;;;;;5040212;28;20112;-65
2021/12/11 22:22:33;;;;;;;33.13;19.52;;;4.30;99.90;;;;;;5034218;28;20350;-66
2021/12/11 22:25:02;;;;;;;35.30;20.63;;;4.30;99.90;;;;;;5039752;28;20136;-65
2021/12/11 22:27:36;;;;;;;33.60;19.70;;;4.30;99.90;;;;;;5029204;28;20045;-65
2021/12/11 22:30:23;;;;;;;34.90;20.52;;;4.30;99.90;;;;;;5007795;28;20610;-66
2021/12/11 22:32:50;;;;;;;36.63;21.17;;;4.30;99.90;;;;;;5036452;28;20465;-66
2021/12/11 22:35:21;;;;;;;42.60;22.45;;;4.30;99.90;;;;;;5033422;28;20516;-66
2021/12/11 22:37:46;;;;;;;37.25;20.90;;;4.30;99.90;;;;;;5027728;28;20068;-66
2021/12/11 22:40:19;;;;;;;44.38;23.58;;;4.30;99.90;;;;;;5036690;28;20430;-66
2021/12/11 22:42:46;;;;;;;37.03;20.90;;;4.30;99.90;;;;;;5028284;28;20068;-65
2021/12/11 22:45:17;;;;;;;39.60;21.83;;;4.30;99.90;;;;;;5050916;28;20445;-65
2021/12/11 22:47:47;;;;;;;41.83;22.80;;;4.30;99.90;;;;;;5041754;28;20515;-66
2021/12/11 22:50:18;;;;;;;43.63;22.65;;;4.30;99.90;;;;;;5028611;28;20834;-66
2021/12/11 22:52:45;;;;;;;40.53;23.48;;;4.40;99.90;;;;;;5035825;28;20811;-66
2021/12/11 22:55:28;;;;;;;42.55;23.73;;;4.40;99.90;;;;;;5033570;28;20041;-65
2021/12/11 22:58:04;;;;;;;37.00;23.00;;;4.40;99.90;;;;;;5033099;28;20046;-65
2021/12/11 23:01:06;;;;;;;40.50;23.83;;;4.40;99.90;;;;;;5027666;28;20549;-66
2021/12/11 23:03:48;;;;;;;43.97;23.98;;;4.40;99.90;;;;;;5027059;28;20512;-66
2021/12/11 23:06:19;;;;;;;40.50;22.17;;;4.50;99.90;;;;;;5031261;28;20051;-65
2021/12/11 23:08:47;;;;;;;43.90;25.23;;;4.50;99.90;;;;;;5037798;28;20566;-65
2021/12/11 23:11:35;;;;;;;39.03;23.42;;;4.50;99.90;;;;;;5037923;28;20033;-65
2021/12/11 23:14:12;;;;;;;40.20;23.92;;;4.50;99.90;;;;;;5044876;28;20056;-65
2021/12/11 23:16:45;;;;;;;39.30;24.48;;;4.50;99.90;;;;;;5037218;28;20056;-65
2021/12/11 23:19:25;;;;;;;41.63;24.33;;;4.50;99.90;;;;;;5029931;28;20155;-65
2021/12/11 23:21:55;;;;;;;41.58;24.95;;;4.50;99.90;;;;;;5030649;28;20037;-65
2021/12/11 23:24:30;;;;;;;46.40;25.80;;;4.50;99.90;;;;;;5032629;28;20532;-66
2021/12/11 23:27:10;;;;;;;41.23;25.37;;;4.50;99.90;;;;;;5031521;28;20053;-66
2021/12/11 23:29:42;;;;;;;50.60;25.45;;;4.60;99.90;;;;;;5029136;28;20052;-66
2021/12/11 23:32:17;;;;;;;45.92;24.90;;;4.60;99.90;;;;;;5031720;28;20095;-67
2021/12/11 23:34:49;;;;;;;52.08;26.48;;;4.60;99.90;;;;;;5044801;28;20052;-66
2021/12/11 23:37:21;;;;;;;41.90;24.30;;;4.60;99.90;;;;;;5039369;28;20033;-66
2021/12/11 23:39:52;;;;;;;52.67;26.23;;;4.60;99.90;;;;;;5036893;28;20128;-66
2021/12/11 23:42:24;;;;;;;45.20;25.02;;;4.60;99.90;;;;;;5045299;28;20049;-66
2021/12/11 23:44:53;;;;;;;43.58;24.98;;;4.60;99.90;;;;;;5049296;28;20041;-66
2021/12/11 23:47:33;;;;;;;46.25;24.88;;;4.60;99.90;;;;;;5038963;28;20045;-67
2021/12/11 23:50:05;;;;;;;37.60;22.23;;;4.60;99.90;;;;;;5036120;28;20072;-66
2021/12/11 23:52:34;;;;;;;40.03;22.35;;;4.70;99.90;;;;;;5034502;28;20054;-64
2021/12/11 23:55:04;;;;;;;48.38;24.50;;;4.60;99.90;;;;;;5037134;28;20053;-65
2021/12/11 23:57:35;;;;;;;44.50;23.52;;;4.70;99.90;;;;;;5030285;28;20041;-66
